Andover, New York
Current Conditions -  °F | °C
As of 9:56 PM on Wednesday 22 Oct 2014 (Local Time) from KELZ Reporting Station
Overcast Overcast  
Wind Chill: 36°   Ceiling: 200
Heat Index: 41°   Visibility: 10mi
Dew Point: 40°   Wind: 8mph
Humidity: 96%   Direction: 350°N
Pressure: 30.14"   Gusts: NA
Location:  42.16°N, 77.8°W
Report Text: KELZ 230156Z AUTO 35007KT 300V030 10SM OVC002 05/04 A3014 RMK AO2 SLP219 T00500044
Loading
Personal Weather Stations






























Interactive Weather Map
Tropical Storm Tracking
New forecast layout! Learn more

10-Day Weather Forecast

Advertisements
Track Severe Weather on mobile